Arcadia, Florida
Current Conditions -  °F | °C
As of 8:34 AM on Sunday 23 Nov 2014 (Local Time) from KPGD Reporting Station
Broken Clouds Broken Clouds  
Wind Chill: 77°   Ceiling: 1700
Heat Index: 78°   Visibility: 10mi
Dew Point: 72°   Wind: 14mph
Humidity: 84%   Direction: 150°SSE
Pressure: 30.02"   Gusts: NA
Location:  27.22°N, 81.86°W
Report Text: KPGD 231334Z 15012KT 10SM FEW009 BKN017 25/22 A3002 RMK AO2 T02500222 $
Loading
Personal Weather Stations






























Interactive Weather Map New forecast layout! Learn more

10-Day Weather Forecast

Advertisements
Track Severe Weather on mobile